sensor_id;sensor_type;location;lat;lon;timestamp;pressure;altitude;pressure_sealevel;temperature;humidity
20027;BME280;10174;42.688;23.344;2022-11-09T00:01:27;95926.47;;;7.88;91.54
20027;BME280;10174;42.688;23.344;2022-11-09T00:03:54;95938.22;;;7.98;91.44
20027;BME280;10174;42.688;23.344;2022-11-09T00:06:21;95945.34;;;8.16;90.84
20027;BME280;10174;42.688;23.344;2022-11-09T00:08:46;95927.31;;;8.12;90.64
20027;BME280;10174;42.688;23.344;2022-11-09T00:11:12;95920.91;;;8.13;90.33
20027;BME280;10174;42.688;23.344;2022-11-09T00:13:39;95909.97;;;8.02;90.44
20027;BME280;10174;42.688;23.344;2022-11-09T00:16:06;95939.06;;;8.23;90.59
20027;BME280;10174;42.688;23.344;2022-11-09T00:18:33;95927.09;;;8.25;90.45
20027;BME280;10174;42.688;23.344;2022-11-09T00:21:25;95917.53;;;8.17;90.37
20027;BME280;10174;42.688;23.344;2022-11-09T00:23:51;95819.09;;;7.60;90.38
20027;BME280;10174;42.688;23.344;2022-11-09T00:26:18;95948.28;;;8.38;90.46
20027;BME280;10174;42.688;23.344;2022-11-09T00:28:44;95947.91;;;8.35;90.80
20027;BME280;10174;42.688;23.344;2022-11-09T00:31:11;95943.84;;;8.32;91.50
20027;BME280;10174;42.688;23.344;2022-11-09T00:33:37;95947.44;;;8.38;91.11
20027;BME280;10174;42.688;23.344;2022-11-09T00:36:10;95944.78;;;8.50;91.02
20027;BME280;10174;42.688;23.344;2022-11-09T00:38:36;95931.13;;;8.39;90.59
20027;BME280;10174;42.688;23.344;2022-11-09T00:41:05;95945.84;;;8.49;90.94
20027;BME280;10174;42.688;23.344;2022-11-09T00:43:31;95938.97;;;8.53;90.77
20027;BME280;10174;42.688;23.344;2022-11-09T00:45:57;95940.59;;;8.54;90.96
20027;BME280;10174;42.688;23.344;2022-11-09T00:48:22;95944.56;;;8.63;90.38
20027;BME280;10174;42.688;23.344;2022-11-09T00:50:57;95937.22;;;8.59;90.79
20027;BME280;10174;42.688;23.344;2022-11-09T00:53:24;95909.88;;;8.45;91.13
20027;BME280;10174;42.688;23.344;2022-11-09T00:58:23;95919.53;;;8.46;90.62
20027;BME280;10174;42.688;23.344;2022-11-09T01:00:49;95917.19;;;8.37;91.44
20027;BME280;10174;42.688;23.344;2022-11-09T01:03:15;95927.09;;;8.49;91.47
20027;BME280;10174;42.688;23.344;2022-11-09T01:05:40;95866.69;;;8.06;91.33
20027;BME280;10174;42.688;23.344;2022-11-09T01:08:06;95928.00;;;8.43;92.31
20027;BME280;10174;42.688;23.344;2022-11-09T01:10:31;95926.03;;;8.38;92.36
20027;BME280;10174;42.688;23.344;2022-11-09T01:12:56;95931.41;;;8.50;91.87
20027;BME280;10174;42.688;23.344;2022-11-09T01:15:22;95920.66;;;8.38;92.05
20027;BME280;10174;42.688;23.344;2022-11-09T01:17:47;95879.59;;;8.09;91.92
20027;BME280;10174;42.688;23.344;2022-11-09T01:20:14;95921.41;;;8.45;91.74
20027;BME280;10174;42.688;23.344;2022-11-09T01:22:39;95910.31;;;8.42;91.82
20027;BME280;10174;42.688;23.344;2022-11-09T01:25:05;95922.66;;;8.54;91.84
20027;BME280;10174;42.688;23.344;2022-11-09T01:27:31;95834.00;;;8.03;91.67
20027;BME280;10174;42.688;23.344;2022-11-09T01:29:57;95860.63;;;8.22;91.16
20027;BME280;10174;42.688;23.344;2022-11-09T01:32:22;95929.66;;;8.67;91.15
20027;BME280;10174;42.688;23.344;2022-11-09T01:34:48;95913.13;;;8.59;91.41
20027;BME280;10174;42.688;23.344;2022-11-09T01:37:13;95924.28;;;8.67;91.84
20027;BME280;10174;42.688;23.344;2022-11-09T01:39:39;95843.41;;;8.18;91.46
20027;BME280;10174;42.688;23.344;2022-11-09T01:42:04;95932.03;;;8.81;91.42
20027;BME280;10174;42.688;23.344;2022-11-09T01:44:30;95917.38;;;8.83;90.87
20027;BME280;10174;42.688;23.344;2022-11-09T01:47:00;95911.22;;;8.83;90.59
20027;BME280;10174;42.688;23.344;2022-11-09T01:49:55;95919.19;;;8.95;90.52
20027;BME280;10174;42.688;23.344;2022-11-09T01:52:35;95912.81;;;8.84;90.90
20027;BME280;10174;42.688;23.344;2022-11-09T01:55:04;95908.84;;;8.98;90.34
20027;BME280;10174;42.688;23.344;2022-11-09T01:57:38;95913.53;;;9.20;89.50
20027;BME280;10174;42.688;23.344;2022-11-09T02:00:08;95913.59;;;9.25;89.54
20027;BME280;10174;42.688;23.344;2022-11-09T02:02:35;95900.50;;;9.12;89.74
20027;BME280;10174;42.688;23.344;2022-11-09T02:05:06;95924.81;;;9.22;89.78
20027;BME280;10174;42.688;23.344;2022-11-09T02:07:33;95897.47;;;9.08;89.32
20027;BME280;10174;42.688;23.344;2022-11-09T02:12:32;95924.25;;;9.20;89.95
20027;BME280;10174;42.688;23.344;2022-11-09T02:14:58;95918.97;;;9.25;89.70
20027;BME280;10174;42.688;23.344;2022-11-09T02:17:25;95920.53;;;9.21;89.88
20027;BME280;10174;42.688;23.344;2022-11-09T02:19:51;95925.78;;;9.16;90.09
20027;BME280;10174;42.688;23.344;2022-11-09T02:22:16;95935.38;;;9.12;90.72
20027;BME280;10174;42.688;23.344;2022-11-09T02:24:42;95907.88;;;9.04;90.63
20027;BME280;10174;42.688;23.344;2022-11-09T02:27:07;95859.13;;;8.79;90.26
20027;BME280;10174;42.688;23.344;2022-11-09T02:29:39;95930.84;;;9.29;89.87
20027;BME280;10174;42.688;23.344;2022-11-09T02:32:09;95925.28;;;9.19;90.08
20027;BME280;10174;42.688;23.344;2022-11-09T02:34:36;95934.28;;;9.41;89.36
20027;BME280;10174;42.688;23.344;2022-11-09T02:37:02;95933.72;;;9.39;89.56
20027;BME280;10174;42.688;23.344;2022-11-09T02:39:27;95910.38;;;9.23;89.31
20027;BME280;10174;42.688;23.344;2022-11-09T02:41:59;95930.69;;;9.36;89.47
20027;BME280;10174;42.688;23.344;2022-11-09T02:44:26;95904.03;;;9.29;89.41
20027;BME280;10174;42.688;23.344;2022-11-09T02:46:52;95916.56;;;9.40;88.96
20027;BME280;10174;42.688;23.344;2022-11-09T02:49:18;95927.81;;;9.54;88.61
20027;BME280;10174;42.688;23.344;2022-11-09T02:51:43;95749.94;;;8.28;88.66
20027;BME280;10174;42.688;23.344;2022-11-09T02:54:09;95938.06;;;9.57;88.43
20027;BME280;10174;42.688;23.344;2022-11-09T02:56:35;95936.09;;;9.53;88.23
20027;BME280;10174;42.688;23.344;2022-11-09T02:59:00;95934.97;;;9.49;88.52
20027;BME280;10174;42.688;23.344;2022-11-09T03:01:27;95920.81;;;9.36;88.68
20027;BME280;10174;42.688;23.344;2022-11-09T03:03:53;95944.88;;;9.48;88.32
20027;BME280;10174;42.688;23.344;2022-11-09T03:06:18;95919.16;;;9.35;88.83
20027;BME280;10174;42.688;23.344;2022-11-09T03:08:44;95931.47;;;9.48;88.11
20027;BME280;10174;42.688;23.344;2022-11-09T03:11:09;95929.59;;;9.49;88.57
20027;BME280;10174;42.688;23.344;2022-11-09T03:13:34;95927.78;;;9.37;88.56
20027;BME280;10174;42.688;23.344;2022-11-09T03:16:04;95932.53;;;9.47;88.30
20027;BME280;10174;42.688;23.344;2022-11-09T03:18:31;95913.53;;;9.20;88.69
20027;BME280;10174;42.688;23.344;2022-11-09T03:21:04;95940.09;;;9.21;88.95
20027;BME280;10174;42.688;23.344;2022-11-09T03:23:30;95912.88;;;9.01;89.32
20027;BME280;10174;42.688;23.344;2022-11-09T03:25:55;95925.00;;;9.03;89.53
20027;BME280;10174;42.688;23.344;2022-11-09T03:28:21;95934.41;;;9.18;89.16
20027;BME280;10174;42.688;23.344;2022-11-09T03:30:46;95930.69;;;9.07;89.03
20027;BME280;10174;42.688;23.344;2022-11-09T03:33:11;95932.28;;;9.20;88.25
20027;BME280;10174;42.688;23.344;2022-11-09T03:35:38;95940.25;;;9.15;88.19
20027;BME280;10174;42.688;23.344;2022-11-09T03:38:04;95936.81;;;8.90;88.63
20027;BME280;10174;42.688;23.344;2022-11-09T03:40:30;95934.63;;;8.76;89.04
20027;BME280;10174;42.688;23.344;2022-11-09T03:42:56;95948.97;;;8.69;89.54
20027;BME280;10174;42.688;23.344;2022-11-09T03:45:22;95947.13;;;8.46;89.96
20027;BME280;10174;42.688;23.344;2022-11-09T03:47:47;95917.31;;;8.19;90.32
20027;BME280;10174;42.688;23.344;2022-11-09T03:50:14;95941.03;;;8.27;90.32
20027;BME280;10174;42.688;23.344;2022-11-09T03:52:43;95949.97;;;8.09;90.79
20027;BME280;10174;42.688;23.344;2022-11-09T03:55:09;95937.88;;;7.95;91.02
20027;BME280;10174;42.688;23.344;2022-11-09T03:57:35;95947.63;;;7.89;91.37
20027;BME280;10174;42.688;23.344;2022-11-09T04:00:00;95953.09;;;7.82;91.47
20027;BME280;10174;42.688;23.344;2022-11-09T04:02:26;95952.72;;;7.67;91.73
20027;BME280;10174;42.688;23.344;2022-11-09T04:04:51;95837.50;;;7.03;92.03
20027;BME280;10174;42.688;23.344;2022-11-09T04:07:17;95946.31;;;7.56;91.95
20027;BME280;10174;42.688;23.344;2022-11-09T04:09:42;95930.78;;;7.35;92.18
20027;BME280;10174;42.688;23.344;2022-11-09T04:12:07;95929.72;;;7.36;92.26
20027;BME280;10174;42.688;23.344;2022-11-09T04:14:33;95847.78;;;6.87;91.87
20027;BME280;10174;42.688;23.344;2022-11-09T04:16:58;95950.47;;;7.52;92.16
20027;BME280;10174;42.688;23.344;2022-11-09T04:19:23;95949.16;;;7.43;92.26
20027;BME280;10174;42.688;23.344;2022-11-09T04:21:49;95957.28;;;7.36;92.10
20027;BME280;10174;42.688;23.344;2022-11-09T04:24:15;95943.88;;;7.24;92.55
20027;BME280;10174;42.688;23.344;2022-11-09T04:26:40;95944.44;;;7.26;92.56
20027;BME280;10174;42.688;23.344;2022-11-09T04:29:05;95854.63;;;6.65;91.94
20027;BME280;10174;42.688;23.344;2022-11-09T04:31:31;95956.66;;;7.22;92.46
20027;BME280;10174;42.688;23.344;2022-11-09T04:33:56;95931.69;;;6.98;93.10
20027;BME280;10174;42.688;23.344;2022-11-09T04:36:22;95955.50;;;7.00;93.08
20027;BME280;10174;42.688;23.344;2022-11-09T04:38:47;95955.34;;;6.94;93.32
20027;BME280;10174;42.688;23.344;2022-11-09T04:41:12;95959.97;;;6.87;93.21
20027;BME280;10174;42.688;23.344;2022-11-09T04:43:38;95687.75;;;5.21;93.63
20027;BME280;10174;42.688;23.344;2022-11-09T04:46:04;95827.00;;;6.03;93.51
20027;BME280;10174;42.688;23.344;2022-11-09T04:48:30;95947.78;;;6.73;94.30
20027;BME280;10174;42.688;23.344;2022-11-09T04:51:06;95963.09;;;6.84;93.90
20027;BME280;10174;42.688;23.344;2022-11-09T04:53:32;95967.38;;;6.85;93.50
20027;BME280;10174;42.688;23.344;2022-11-09T04:55:58;95957.56;;;6.79;93.90
20027;BME280;10174;42.688;23.344;2022-11-09T04:58:24;95928.94;;;6.68;94.01
20027;BME280;10174;42.688;23.344;2022-11-09T05:00:49;95984.88;;;7.00;93.26
20027;BME280;10174;42.688;23.344;2022-11-09T05:03:15;95928.72;;;6.69;93.50
20027;BME280;10174;42.688;23.344;2022-11-09T05:05:41;95935.31;;;6.85;93.36
20027;BME280;10174;42.688;23.344;2022-11-09T05:08:07;95947.47;;;7.00;93.42
20027;BME280;10174;42.688;23.344;2022-11-09T05:10:33;95915.28;;;6.76;93.30
20027;BME280;10174;42.688;23.344;2022-11-09T05:13:04;95977.44;;;7.20;93.35
20027;BME280;10174;42.688;23.344;2022-11-09T05:15:30;95974.69;;;7.27;93.20
20027;BME280;10174;42.688;23.344;2022-11-09T05:17:55;95977.72;;;7.30;93.15
20027;BME280;10174;42.688;23.344;2022-11-09T05:20:22;95978.69;;;7.36;92.42
20027;BME280;10174;42.688;23.344;2022-11-09T05:22:48;95971.09;;;7.33;92.65
20027;BME280;10174;42.688;23.344;2022-11-09T05:25:32;95971.47;;;7.37;92.43
20027;BME280;10174;42.688;23.344;2022-11-09T05:27:58;95985.91;;;7.47;92.30
20027;BME280;10174;42.688;23.344;2022-11-09T05:30:23;95938.66;;;7.29;92.42
20027;BME280;10174;42.688;23.344;2022-11-09T05:32:49;95953.66;;;7.30;91.83
20027;BME280;10174;42.688;23.344;2022-11-09T05:35:15;95982.03;;;7.31;92.52
20027;BME280;10174;42.688;23.344;2022-11-09T05:37:40;95992.53;;;7.45;92.25
20027;BME280;10174;42.688;23.344;2022-11-09T05:40:07;95972.50;;;7.36;92.31
20027;BME280;10174;42.688;23.344;2022-11-09T05:42:33;95862.66;;;6.65;92.10
20027;BME280;10174;42.688;23.344;2022-11-09T05:44:59;95996.97;;;7.51;92.21
20027;BME280;10174;42.688;23.344;2022-11-09T05:47:25;95972.50;;;7.36;92.26
20027;BME280;10174;42.688;23.344;2022-11-09T05:49:50;95969.13;;;7.40;92.39
20027;BME280;10174;42.688;23.344;2022-11-09T05:52:16;96000.59;;;7.57;91.94
20027;BME280;10174;42.688;23.344;2022-11-09T05:54:41;95976.47;;;7.45;91.74
20027;BME280;10174;42.688;23.344;2022-11-09T05:57:07;96008.50;;;7.63;91.61
20027;BME280;10174;42.688;23.344;2022-11-09T05:59:32;96007.03;;;7.67;91.48
20027;BME280;10174;42.688;23.344;2022-11-09T06:01:57;96012.88;;;7.76;91.33
20027;BME280;10174;42.688;23.344;2022-11-09T06:04:23;96010.13;;;7.95;90.73
20027;BME280;10174;42.688;23.344;2022-11-09T06:06:48;96020.88;;;8.07;90.78
20027;BME280;10174;42.688;23.344;2022-11-09T06:09:13;96012.50;;;8.15;90.44
20027;BME280;10174;42.688;23.344;2022-11-09T06:11:39;95987.13;;;8.06;90.35
20027;BME280;10174;42.688;23.344;2022-11-09T06:14:04;95996.91;;;8.12;90.20
20027;BME280;10174;42.688;23.344;2022-11-09T06:16:30;95988.41;;;8.15;90.15
20027;BME280;10174;42.688;23.344;2022-11-09T06:18:55;95963.75;;;8.13;89.77
20027;BME280;10174;42.688;23.344;2022-11-09T06:21:20;95929.88;;;8.07;89.35
20027;BME280;10174;42.688;23.344;2022-11-09T06:23:46;96028.88;;;8.72;88.41
20027;BME280;10174;42.688;23.344;2022-11-09T06:26:12;96013.13;;;8.76;88.50
20027;BME280;10174;42.688;23.344;2022-11-09T06:28:38;96013.59;;;8.85;88.20
20027;BME280;10174;42.688;23.344;2022-11-09T06:31:06;96014.16;;;8.99;87.29
20027;BME280;10174;42.688;23.344;2022-11-09T06:33:33;95995.63;;;9.09;87.32
20027;BME280;10174;42.688;23.344;2022-11-09T06:35:59;96010.13;;;9.25;86.61
20027;BME280;10174;42.688;23.344;2022-11-09T06:38:24;95999.28;;;9.32;85.63
20027;BME280;10174;42.688;23.344;2022-11-09T06:40:54;96028.19;;;9.70;85.46
20027;BME280;10174;42.688;23.344;2022-11-09T06:43:20;96020.81;;;9.77;84.54
20027;BME280;10174;42.688;23.344;2022-11-09T06:45:46;96008.47;;;9.65;84.87
20027;BME280;10174;42.688;23.344;2022-11-09T06:48:12;96025.97;;;9.67;84.79
20027;BME280;10174;42.688;23.344;2022-11-09T06:50:37;96025.03;;;9.73;84.43
20027;BME280;10174;42.688;23.344;2022-11-09T06:53:05;95959.88;;;9.32;84.86
20027;BME280;10174;42.688;23.344;2022-11-09T06:55:32;95809.03;;;8.38;84.95
20027;BME280;10174;42.688;23.344;2022-11-09T06:57:59;95995.78;;;9.60;85.22
20027;BME280;10174;42.688;23.344;2022-11-09T07:00:25;95898.97;;;9.16;84.22
20027;BME280;10174;42.688;23.344;2022-11-09T07:02:52;96027.03;;;9.66;85.30
20027;BME280;10174;42.688;23.344;2022-11-09T07:05:17;96025.75;;;9.69;85.60
20027;BME280;10174;42.688;23.344;2022-11-09T07:07:43;95996.75;;;9.54;85.63
20027;BME280;10174;42.688;23.344;2022-11-09T07:10:09;96010.91;;;9.66;85.53
20027;BME280;10174;42.688;23.344;2022-11-09T07:12:34;96001.34;;;9.70;84.82
20027;BME280;10174;42.688;23.344;2022-11-09T07:15:01;95990.63;;;9.70;84.94
20027;BME280;10174;42.688;23.344;2022-11-09T07:17:29;96026.16;;;10.06;83.81
20027;BME280;10174;42.688;23.344;2022-11-09T07:19:55;95919.84;;;9.42;84.05
20027;BME280;10174;42.688;23.344;2022-11-09T07:22:20;96022.88;;;10.04;84.12
20027;BME280;10174;42.688;23.344;2022-11-09T07:24:46;96006.03;;;10.26;83.06
20027;BME280;10174;42.688;23.344;2022-11-09T07:27:11;95980.28;;;10.25;82.60
20027;BME280;10174;42.688;23.344;2022-11-09T07:29:37;95975.88;;;10.19;82.13
20027;BME280;10174;42.688;23.344;2022-11-09T07:32:02;96007.41;;;10.40;82.69
20027;BME280;10174;42.688;23.344;2022-11-09T07:34:28;95980.44;;;10.35;82.30
20027;BME280;10174;42.688;23.344;2022-11-09T07:36:54;96005.59;;;10.63;81.78
20027;BME280;10174;42.688;23.344;2022-11-09T07:39:20;96008.84;;;10.65;81.31
20027;BME280;10174;42.688;23.344;2022-11-09T07:41:48;95961.84;;;10.50;80.84
20027;BME280;10174;42.688;23.344;2022-11-09T07:44:14;95978.97;;;10.61;80.84
20027;BME280;10174;42.688;23.344;2022-11-09T07:46:46;95997.69;;;10.56;80.80
20027;BME280;10174;42.688;23.344;2022-11-09T07:49:13;95995.63;;;10.80;80.43
20027;BME280;10174;42.688;23.344;2022-11-09T07:51:39;96007.72;;;11.00;79.70
20027;BME280;10174;42.688;23.344;2022-11-09T07:54:04;95997.81;;;10.83;80.04
20027;BME280;10174;42.688;23.344;2022-11-09T07:56:30;96002.97;;;11.07;79.68
20027;BME280;10174;42.688;23.344;2022-11-09T07:58:55;95958.03;;;10.85;79.28
20027;BME280;10174;42.688;23.344;2022-11-09T08:01:21;95974.00;;;10.92;79.06
20027;BME280;10174;42.688;23.344;2022-11-09T08:03:46;95993.91;;;11.13;79.39
20027;BME280;10174;42.688;23.344;2022-11-09T08:06:12;95977.03;;;11.18;78.99
20027;BME280;10174;42.688;23.344;2022-11-09T08:08:37;95931.94;;;11.03;78.47
20027;BME280;10174;42.688;23.344;2022-11-09T08:11:02;95996.56;;;11.57;77.77
20027;BME280;10174;42.688;23.344;2022-11-09T08:13:28;96000.19;;;11.68;77.25
20027;BME280;10174;42.688;23.344;2022-11-09T08:15:53;95953.28;;;11.59;76.56
20027;BME280;10174;42.688;23.344;2022-11-09T08:18:20;96000.09;;;11.85;76.37
20027;BME280;10174;42.688;23.344;2022-11-09T08:20:46;95977.28;;;11.66;76.29
20027;BME280;10174;42.688;23.344;2022-11-09T08:23:16;96001.16;;;11.84;76.51
20027;BME280;10174;42.688;23.344;2022-11-09T08:25:42;95972.34;;;11.85;75.79
20027;BME280;10174;42.688;23.344;2022-11-09T08:28:08;95985.59;;;11.91;75.74
20027;BME280;10174;42.688;23.344;2022-11-09T08:30:34;95976.28;;;11.99;75.45
20027;BME280;10174;42.688;23.344;2022-11-09T08:33:01;95993.50;;;12.30;74.45
20027;BME280;10174;42.688;23.344;2022-11-09T08:35:27;95957.97;;;12.34;73.65
20027;BME280;10174;42.688;23.344;2022-11-09T08:37:53;96009.97;;;12.72;73.55
20027;BME280;10174;42.688;23.344;2022-11-09T08:40:23;95980.44;;;12.92;72.56
20027;BME280;10174;42.688;23.344;2022-11-09T08:42:50;96008.69;;;13.32;72.01
20027;BME280;10174;42.688;23.344;2022-11-09T08:45:15;96007.72;;;13.44;71.13
20027;BME280;10174;42.688;23.344;2022-11-09T08:47:42;95979.81;;;12.75;71.85
20027;BME280;10174;42.688;23.344;2022-11-09T08:50:09;95974.94;;;12.72;71.94
20027;BME280;10174;42.688;23.344;2022-11-09T08:52:35;95999.00;;;12.83;71.91
20027;BME280;10174;42.688;23.344;2022-11-09T08:55:00;95930.56;;;12.47;72.32
20027;BME280;10174;42.688;23.344;2022-11-09T08:57:26;95973.34;;;12.76;72.42
20027;BME280;10174;42.688;23.344;2022-11-09T08:59:52;95922.50;;;12.47;72.08
20027;BME280;10174;42.688;23.344;2022-11-09T09:02:17;95971.19;;;12.78;71.99
20027;BME280;10174;42.688;23.344;2022-11-09T09:04:43;96006.38;;;12.98;72.17
20027;BME280;10174;42.688;23.344;2022-11-09T09:07:09;96002.63;;;13.05;71.01
20027;BME280;10174;42.688;23.344;2022-11-09T09:09:34;96003.41;;;13.00;71.39
20027;BME280;10174;42.688;23.344;2022-11-09T09:12:03;95997.75;;;13.01;71.29
20027;BME280;10174;42.688;23.344;2022-11-09T09:14:29;95950.22;;;12.90;70.68
20027;BME280;10174;42.688;23.344;2022-11-09T09:16:54;95994.66;;;13.30;70.41
20027;BME280;10174;42.688;23.344;2022-11-09T09:19:20;95988.69;;;13.23;70.18
20027;BME280;10174;42.688;23.344;2022-11-09T09:21:46;95985.75;;;13.30;70.20
20027;BME280;10174;42.688;23.344;2022-11-09T09:24:11;95966.56;;;13.21;70.31
20027;BME280;10174;42.688;23.344;2022-11-09T09:26:37;95942.25;;;13.16;69.74
20027;BME280;10174;42.688;23.344;2022-11-09T09:29:02;95943.47;;;13.46;68.86
20027;BME280;10174;42.688;23.344;2022-11-09T09:31:27;95939.44;;;13.48;68.78
20027;BME280;10174;42.688;23.344;2022-11-09T09:33:53;95951.63;;;13.77;68.33
20027;BME280;10174;42.688;23.344;2022-11-09T09:36:21;95971.66;;;14.06;67.44
20027;BME280;10174;42.688;23.344;2022-11-09T09:38:50;95954.38;;;14.18;66.37
20027;BME280;10174;42.688;23.344;2022-11-09T09:41:38;95977.88;;;14.33;66.71
20027;BME280;10174;42.688;23.344;2022-11-09T09:44:17;95884.94;;;13.98;65.57
20027;BME280;10174;42.688;23.344;2022-11-09T09:47:21;95975.97;;;14.59;65.14
20027;BME280;10174;42.688;23.344;2022-11-09T09:49:55;95941.94;;;14.27;65.89
20027;BME280;10174;42.688;23.344;2022-11-09T09:57:42;95924.81;;;14.88;64.29
20027;BME280;10174;42.688;23.344;2022-11-09T10:00:20;95955.78;;;15.87;62.40
20027;BME280;10174;42.688;23.344;2022-11-09T10:02:45;95935.03;;;17.43;57.18
20027;BME280;10174;42.688;23.344;2022-11-09T10:05:14;95944.44;;;19.07;51.56
20027;BME280;10174;42.688;23.344;2022-11-09T10:08:09;95949.34;;;19.60;48.08
20027;BME280;10174;42.688;23.344;2022-11-09T10:10:41;95933.66;;;21.24;44.71
20027;BME280;10174;42.688;23.344;2022-11-09T10:13:35;95949.53;;;20.82;45.64
20027;BME280;10174;42.688;23.344;2022-11-09T10:21:48;95928.47;;;22.68;40.29
20027;BME280;10174;42.688;23.344;2022-11-09T10:26:57;95920.56;;;23.52;38.68
20027;BME280;10174;42.688;23.344;2022-11-09T10:32:27;95927.53;;;24.00;37.66
20027;BME280;10174;42.688;23.344;2022-11-09T10:35:09;95917.25;;;25.72;34.39
20027;BME280;10174;42.688;23.344;2022-11-09T10:37:42;95906.31;;;23.59;37.27
20027;BME280;10174;42.688;23.344;2022-11-09T10:40:20;95914.31;;;23.43;38.97
20027;BME280;10174;42.688;23.344;2022-11-09T10:42:53;95886.09;;;23.42;37.79
20027;BME280;10174;42.688;23.344;2022-11-09T10:45:33;95896.50;;;24.21;36.77
20027;BME280;10174;42.688;23.344;2022-11-09T10:48:00;95897.56;;;22.58;39.12
20027;BME280;10174;42.688;23.344;2022-11-09T10:50:46;95898.06;;;21.82;40.29
20027;BME280;10174;42.688;23.344;2022-11-09T10:53:29;95894.88;;;22.15;40.19
20027;BME280;10174;42.688;23.344;2022-11-09T10:58:33;95886.13;;;20.31;43.01
20027;BME280;10174;42.688;23.344;2022-11-09T11:03:25;95878.56;;;20.82;42.24
20027;BME280;10174;42.688;23.344;2022-11-09T11:06:04;95885.06;;;21.87;40.92
20027;BME280;10174;42.688;23.344;2022-11-09T11:08:34;95885.91;;;21.22;41.82
20027;BME280;10174;42.688;23.344;2022-11-09T11:11:13;95870.16;;;20.70;43.40
20027;BME280;10174;42.688;23.344;2022-11-09T11:13:39;95891.31;;;21.04;42.28
20027;BME280;10174;42.688;23.344;2022-11-09T11:16:13;95879.88;;;20.62;42.65
20027;BME280;10174;42.688;23.344;2022-11-09T11:18:44;95857.94;;;20.44;42.54
20027;BME280;10174;42.688;23.344;2022-11-09T11:21:14;95880.06;;;19.89;44.84
20027;BME280;10174;42.688;23.344;2022-11-09T11:23:39;95869.28;;;19.33;45.63
20027;BME280;10174;42.688;23.344;2022-11-09T11:28:45;95809.41;;;18.64;46.79
20027;BME280;10174;42.688;23.344;2022-11-09T11:31:19;95858.47;;;19.79;44.55
20027;BME280;10174;42.688;23.344;2022-11-09T11:33:46;95869.13;;;18.88;46.79
20027;BME280;10174;42.688;23.344;2022-11-09T11:42:01;95854.25;;;20.40;43.86
20027;BME280;10174;42.688;23.344;2022-11-09T11:47:29;95803.34;;;20.36;43.13
20027;BME280;10174;42.688;23.344;2022-11-09T11:52:42;95853.34;;;19.77;45.25
20027;BME280;10174;42.688;23.344;2022-11-09T11:55:29;95834.16;;;19.46;46.32
20027;BME280;10174;42.688;23.344;2022-11-09T12:24:57;95838.28;;;17.85;50.69
20027;BME280;10174;42.688;23.344;2022-11-09T12:27:46;95842.28;;;17.88;50.31
20027;BME280;10174;42.688;23.344;2022-11-09T12:30:18;95812.41;;;18.07;50.22
20027;BME280;10174;42.688;23.344;2022-11-09T12:35:21;95836.44;;;18.60;48.87
20027;BME280;10174;42.688;23.344;2022-11-09T12:40:55;95826.53;;;19.20;47.94
20027;BME280;10174;42.688;23.344;2022-11-09T12:46:02;95808.91;;;20.62;44.24
20027;BME280;10174;42.688;23.344;2022-11-09T12:48:31;95829.59;;;20.54;44.22
20027;BME280;10174;42.688;23.344;2022-11-09T12:50:58;95737.00;;;20.18;44.88
20027;BME280;10174;42.688;23.344;2022-11-09T12:53:32;95820.94;;;20.61;44.24
20027;BME280;10174;42.688;23.344;2022-11-09T12:58:34;95805.09;;;20.63;44.70
20027;BME280;10174;42.688;23.344;2022-11-09T13:01:10;95820.06;;;21.32;42.29
20027;BME280;10174;42.688;23.344;2022-11-09T13:03:36;95814.25;;;21.25;42.08
20027;BME280;10174;42.688;23.344;2022-11-09T13:08:44;95793.97;;;19.74;45.41
20027;BME280;10174;42.688;23.344;2022-11-09T13:11:42;95811.03;;;19.07;48.06
20027;BME280;10174;42.688;23.344;2022-11-09T13:21:58;95811.66;;;17.49;52.69
20027;BME280;10174;42.688;23.344;2022-11-09T13:26:57;95787.69;;;17.18;53.30
20027;BME280;10174;42.688;23.344;2022-11-09T13:32:03;95795.28;;;16.73;53.34
20027;BME280;10174;42.688;23.344;2022-11-09T13:34:49;95820.09;;;16.90;53.95
20027;BME280;10174;42.688;23.344;2022-11-09T13:39:59;95817.38;;;16.85;54.21
20027;BME280;10174;42.688;23.344;2022-11-09T13:42:30;95799.69;;;16.69;55.17
20027;BME280;10174;42.688;23.344;2022-11-09T13:45:16;95816.59;;;16.61;55.28
20027;BME280;10174;42.688;23.344;2022-11-09T13:47:49;95768.25;;;16.19;56.10
20027;BME280;10174;42.688;23.344;2022-11-09T13:50:21;95816.50;;;16.47;56.25
20027;BME280;10174;42.688;23.344;2022-11-09T13:55:20;95751.41;;;16.23;56.40
20027;BME280;10174;42.688;23.344;2022-11-09T13:57:46;95800.31;;;16.61;55.67
20027;BME280;10174;42.688;23.344;2022-11-09T14:00:18;95786.00;;;16.55;55.76
20027;BME280;10174;42.688;23.344;2022-11-09T14:05:34;95788.69;;;16.36;55.31
20027;BME280;10174;42.688;23.344;2022-11-09T14:08:03;95785.03;;;16.21;56.26
20027;BME280;10174;42.688;23.344;2022-11-09T14:16:39;95688.88;;;15.36;56.83
20027;BME280;10174;42.688;23.344;2022-11-09T14:18:58;95717.09;;;15.59;56.22
20027;BME280;10174;42.688;23.344;2022-11-09T14:21:47;95799.84;;;16.05;58.32
20027;BME280;10174;42.688;23.344;2022-11-09T14:24:17;95797.09;;;16.10;58.08
20027;BME280;10174;42.688;23.344;2022-11-09T14:29:35;95785.72;;;15.79;59.07
20027;BME280;10174;42.688;23.344;2022-11-09T14:34:43;95787.38;;;15.75;58.78
20027;BME280;10174;42.688;23.344;2022-11-09T14:37:11;95810.41;;;15.72;59.84
20027;BME280;10174;42.688;23.344;2022-11-09T14:39:38;95793.63;;;15.70;59.46
20027;BME280;10174;42.688;23.344;2022-11-09T14:42:05;95793.63;;;15.70;59.67
20027;BME280;10174;42.688;23.344;2022-11-09T14:44:41;95793.13;;;15.63;60.28
20027;BME280;10174;42.688;23.344;2022-11-09T14:47:21;95806.59;;;15.73;60.19
20027;BME280;10174;42.688;23.344;2022-11-09T14:49:49;95781.38;;;15.43;60.51
20027;BME280;10174;42.688;23.344;2022-11-09T14:52:16;95814.41;;;15.45;60.88
20027;BME280;10174;42.688;23.344;2022-11-09T14:54:43;95734.16;;;14.81;61.32